createdAt,value
2023-02-11T00:01:33.055Z,8.60
2023-02-11T00:04:00.086Z,8.66
2023-02-11T00:06:28.070Z,8.61
2023-02-11T00:08:55.032Z,8.67
2023-02-11T00:11:22.514Z,8.66
2023-02-11T00:13:49.049Z,8.67
2023-02-11T00:16:16.813Z,8.67
2023-02-11T00:18:43.910Z,8.65
2023-02-11T00:21:11.765Z,8.57
2023-02-11T00:23:38.662Z,8.55
2023-02-11T00:26:11.150Z,8.64
2023-02-11T00:28:37.493Z,8.64
2023-02-11T00:31:04.082Z,8.63
2023-02-11T00:33:30.788Z,8.64
2023-02-11T00:35:57.193Z,8.66
2023-02-11T00:38:23.740Z,8.71
2023-02-11T00:40:50.182Z,8.60
2023-02-11T00:43:17.266Z,8.66
2023-02-11T00:45:44.846Z,8.66
2023-02-11T00:48:11.595Z,8.66
2023-02-11T00:50:38.032Z,8.63
2023-02-11T00:53:04.759Z,8.61
2023-02-11T00:55:31.208Z,8.65
2023-02-11T00:57:58.767Z,8.69
2023-02-11T01:00:25.278Z,8.69
2023-02-11T01:02:52.327Z,8.74
2023-02-11T01:05:19.349Z,8.73
2023-02-11T01:07:46.268Z,8.70
2023-02-11T01:10:12.672Z,8.74
2023-02-11T01:12:43.161Z,8.69
2023-02-11T01:15:09.868Z,8.82
2023-02-11T01:17:36.443Z,8.77
2023-02-11T01:20:04.853Z,8.80
2023-02-11T01:22:31.393Z,8.78
2023-02-11T01:24:57.746Z,8.75
2023-02-11T01:27:24.148Z,8.81
2023-02-11T01:29:50.611Z,8.81
2023-02-11T01:32:18.262Z,8.78
2023-02-11T01:34:44.737Z,8.70
2023-02-11T01:37:11.226Z,8.77
2023-02-11T01:39:37.573Z,8.82
2023-02-11T01:42:04.087Z,8.81
2023-02-11T01:44:38.044Z,8.73
2023-02-11T01:47:06.271Z,8.78
2023-02-11T01:49:35.133Z,8.79
2023-02-11T01:52:03.458Z,8.69
2023-02-11T01:54:51.369Z,8.71
2023-02-11T01:57:22.502Z,8.70
2023-02-11T01:59:48.983Z,8.73
2023-02-11T02:02:17.580Z,8.73
2023-02-11T02:04:52.993Z,8.72
2023-02-11T02:07:24.997Z,8.70
2023-02-11T02:09:57.175Z,8.67
2023-02-11T02:12:23.661Z,8.67
2023-02-11T02:14:51.365Z,8.70
2023-02-11T02:17:35.324Z,8.65
2023-02-11T02:20:10.659Z,8.66
2023-02-11T02:22:40.284Z,8.70
2023-02-11T02:25:18.899Z,8.67
2023-02-11T02:27:48.267Z,8.63
2023-02-11T02:30:14.631Z,8.68
2023-02-11T02:32:44.233Z,8.70
2023-02-11T02:35:29.619Z,8.70
2023-02-11T02:38:02.031Z,8.72
2023-02-11T02:40:33.652Z,8.68
2023-02-11T02:43:01.444Z,8.66
2023-02-11T02:45:28.331Z,8.67
2023-02-11T02:47:55.161Z,8.68
2023-02-11T02:50:24.963Z,8.60
2023-02-11T02:52:51.282Z,8.64
2023-02-11T02:55:17.604Z,8.66
2023-02-11T02:58:02.788Z,8.61
2023-02-11T03:00:44.251Z,8.58
2023-02-11T03:03:10.667Z,8.58
2023-02-11T03:05:54.023Z,8.67
2023-02-11T03:08:27.336Z,8.70
2023-02-11T03:10:54.523Z,8.62
2023-02-11T03:13:23.975Z,8.62
2023-02-11T03:15:52.606Z,8.66
2023-02-11T03:18:21.199Z,8.64
2023-02-11T03:20:49.228Z,8.63
2023-02-11T03:23:21.476Z,8.65
2023-02-11T03:26:06.120Z,8.67
2023-02-11T03:28:36.658Z,8.70
2023-02-11T03:31:03.049Z,8.64
2023-02-11T03:33:34.575Z,8.73
2023-02-11T03:36:04.306Z,8.73
2023-02-11T03:38:37.411Z,8.67
2023-02-11T03:41:06.520Z,8.72
2023-02-11T03:43:34.565Z,8.70
2023-02-11T03:46:01.514Z,8.77
2023-02-11T03:48:30.862Z,8.77
2023-02-11T03:50:59.042Z,8.74
2023-02-11T03:53:25.424Z,8.67
2023-02-11T03:55:54.650Z,8.72
2023-02-11T03:58:21.106Z,8.67
2023-02-11T04:00:48.722Z,8.64
2023-02-11T04:03:15.182Z,8.68
2023-02-11T04:05:41.614Z,8.71
2023-02-11T04:08:08.422Z,8.67
2023-02-11T04:10:34.844Z,8.59
2023-02-11T04:13:01.276Z,8.64
2023-02-11T04:15:27.745Z,8.59
2023-02-11T04:17:54.181Z,8.62
2023-02-11T04:20:20.615Z,8.60
2023-02-11T04:22:47.003Z,8.60
2023-02-11T04:25:13.365Z,8.58
2023-02-11T04:27:39.715Z,8.59
2023-02-11T04:30:07.047Z,8.55
2023-02-11T04:32:33.501Z,8.59
2023-02-11T04:34:59.826Z,8.58
2023-02-11T04:37:26.200Z,8.62
2023-02-11T04:39:52.520Z,8.63
2023-02-11T04:42:18.829Z,8.60
2023-02-11T04:44:45.187Z,8.61
2023-02-11T04:47:13.370Z,8.58
2023-02-11T04:49:39.718Z,8.54
2023-02-11T04:52:06.100Z,8.60
2023-02-11T04:54:32.524Z,8.57
2023-02-11T04:56:58.908Z,8.53
2023-02-11T04:59:25.246Z,8.57
2023-02-11T05:01:51.640Z,8.61
2023-02-11T05:04:18.186Z,8.59
2023-02-11T05:06:44.615Z,8.57
2023-02-11T05:09:14.216Z,8.55
2023-02-11T05:11:40.756Z,8.59
2023-02-11T05:14:07.400Z,8.59
2023-02-11T05:16:33.773Z,8.63
2023-02-11T05:19:00.428Z,8.66
2023-02-11T05:21:26.917Z,8.56
2023-02-11T05:23:53.334Z,8.63
2023-02-11T05:26:19.780Z,8.62
2023-02-11T05:28:46.205Z,8.58
2023-02-11T05:31:14.467Z,8.60
2023-02-11T05:33:41.383Z,8.58
2023-02-11T05:36:09.488Z,8.63
2023-02-11T05:38:36.737Z,8.61
2023-02-11T05:41:03.585Z,8.56
2023-02-11T05:43:30.186Z,8.58
2023-02-11T05:45:57.056Z,8.62
2023-02-11T05:48:23.426Z,8.60
2023-02-11T05:50:49.814Z,8.61
2023-02-11T05:53:16.140Z,8.67
2023-02-11T05:55:42.703Z,8.65
2023-02-11T05:58:09.079Z,8.64
2023-02-11T06:00:35.713Z,8.60
2023-02-11T06:03:04.165Z,8.61
2023-02-11T06:05:30.692Z,8.63
2023-02-11T06:07:57.185Z,8.63
2023-02-11T06:10:23.557Z,8.66
2023-02-11T06:12:49.915Z,8.61
2023-02-11T06:15:16.263Z,8.61
2023-02-11T06:17:42.726Z,8.62
2023-02-11T06:20:12.072Z,8.63
2023-02-11T06:22:38.582Z,8.65
2023-02-11T06:25:05.339Z,8.60
2023-02-11T06:27:31.806Z,8.63
2023-02-11T06:29:58.464Z,8.68
2023-02-11T06:32:42.886Z,8.61
2023-02-11T06:35:12.351Z,8.64
2023-02-11T06:37:39.117Z,8.64
2023-02-11T06:40:05.680Z,8.61
2023-02-11T06:42:32.043Z,8.64
2023-02-11T06:44:58.527Z,8.61
2023-02-11T06:47:24.862Z,8.62
2023-02-11T06:49:51.164Z,8.63
2023-02-11T06:52:17.536Z,8.63
2023-02-11T06:54:43.952Z,8.67
2023-02-11T06:57:10.320Z,8.63
2023-02-11T06:59:36.648Z,8.59
2023-02-11T07:02:03.087Z,8.59
2023-02-11T07:04:29.613Z,8.64
2023-02-11T07:06:55.972Z,8.66
2023-02-11T07:09:22.509Z,8.64
2023-02-11T07:11:48.896Z,8.64
2023-02-11T07:14:15.327Z,8.64
2023-02-11T07:16:41.725Z,8.60
2023-02-11T07:19:08.094Z,8.65
2023-02-11T07:21:34.464Z,8.67
2023-02-11T07:24:01.188Z,8.67
2023-02-11T07:26:28.874Z,8.69
2023-02-11T07:28:55.710Z,8.64
2023-02-11T07:31:23.423Z,8.74
2023-02-11T07:33:51.130Z,8.79
2023-02-11T07:36:17.554Z,8.78
2023-02-11T07:38:44.050Z,8.78
2023-02-11T07:41:12.057Z,8.79
2023-02-11T07:43:38.875Z,8.87
2023-02-11T07:46:31.741Z,8.83
2023-02-11T07:48:58.188Z,8.92
2023-02-11T07:51:26.042Z,8.97
2023-02-11T07:53:53.463Z,9.02
2023-02-11T07:56:20.448Z,9.02
2023-02-11T07:58:47.203Z,9.11
2023-02-11T08:01:18.222Z,9.12
2023-02-11T08:03:44.770Z,9.17
2023-02-11T08:06:12.793Z,9.14
2023-02-11T08:08:39.672Z,9.17
2023-02-11T08:11:10.358Z,9.17
2023-02-11T08:13:37.199Z,9.14
2023-02-11T08:16:04.409Z,9.17
2023-02-11T08:18:31.021Z,9.16
2023-02-11T08:20:57.464Z,9.18
2023-02-11T08:23:24.394Z,9.17
2023-02-11T08:25:50.884Z,9.22
2023-02-11T08:28:17.251Z,9.23
2023-02-11T08:30:43.695Z,9.30
2023-02-11T08:33:10.111Z,9.28
2023-02-11T08:35:37.196Z,9.35
2023-02-11T08:38:03.595Z,9.31
2023-02-11T08:40:29.890Z,9.31
2023-02-11T08:42:56.271Z,9.42
2023-02-11T08:45:22.704Z,9.47
2023-02-11T08:47:49.097Z,9.51
2023-02-11T08:50:15.514Z,9.53
2023-02-11T08:52:43.032Z,9.51
2023-02-11T08:55:09.474Z,9.53
2023-02-11T08:57:35.963Z,9.53
2023-02-11T09:00:02.788Z,9.57
2023-02-11T09:02:29.993Z,9.52
2023-02-11T09:04:56.461Z,9.65
2023-02-11T09:07:22.811Z,9.70
2023-02-11T09:09:49.178Z,9.74
2023-02-11T09:12:15.651Z,9.81
2023-02-11T09:14:42.969Z,9.83
2023-02-11T09:17:09.505Z,9.83
2023-02-11T09:19:36.233Z,9.79
2023-02-11T09:22:02.670Z,10.00
2023-02-11T09:24:29.014Z,10.00
2023-02-11T09:26:55.412Z,10.07
2023-02-11T09:29:21.785Z,10.15
2023-02-11T09:31:48.362Z,10.10
2023-02-11T09:34:15.857Z,10.11
2023-02-11T09:36:42.472Z,10.17
2023-02-11T09:39:11.663Z,10.25
2023-02-11T09:41:41.091Z,10.22
2023-02-11T09:44:08.659Z,10.18
2023-02-11T09:46:36.508Z,10.27
2023-02-11T09:49:04.736Z,10.32
2023-02-11T09:52:00.513Z,10.37
2023-02-11T09:54:30.505Z,10.41
2023-02-11T09:56:56.870Z,10.44
2023-02-11T09:59:23.255Z,10.45
2023-02-11T10:01:53.501Z,10.44
2023-02-11T10:04:22.954Z,10.38
2023-02-11T10:06:52.522Z,10.48
2023-02-11T10:09:33.093Z,10.49
2023-02-11T10:11:59.427Z,10.56
2023-02-11T10:14:44.429Z,10.57
2023-02-11T10:17:16.884Z,10.58
2023-02-11T10:19:50.420Z,10.61
2023-02-11T10:22:20.234Z,10.66
2023-02-11T10:24:55.125Z,10.67
2023-02-11T10:27:24.487Z,10.82
2023-02-11T10:29:56.989Z,10.85
2023-02-11T10:32:23.316Z,10.85
2023-02-11T10:34:50.768Z,10.77
2023-02-11T10:37:17.177Z,10.83
2023-02-11T10:39:43.511Z,10.81
2023-02-11T10:42:11.766Z,10.74
2023-02-11T10:44:40.122Z,10.86
2023-02-11T10:47:13.578Z,10.82
2023-02-11T10:49:40.030Z,10.81
2023-02-11T10:52:14.366Z,10.78
2023-02-11T10:54:40.691Z,10.77
2023-02-11T10:57:07.520Z,10.77
2023-02-11T10:59:39.958Z,10.81
2023-02-11T11:02:21.027Z,10.92
2023-02-11T11:04:47.658Z,10.94
2023-02-11T11:07:28.074Z,10.94
2023-02-11T11:10:23.773Z,10.95
2023-02-11T11:12:50.122Z,10.98
2023-02-11T11:15:24.264Z,11.09
2023-02-11T11:17:51.643Z,11.10
2023-02-11T11:20:21.057Z,11.06
2023-02-11T11:22:49.038Z,11.10
2023-02-11T11:25:26.899Z,11.03
2023-02-11T11:27:55.471Z,11.05
2023-02-11T11:30:23.504Z,11.12
2023-02-11T11:32:50.070Z,11.16
2023-02-11T11:35:26.932Z,11.20
2023-02-11T11:38:03.683Z,11.17
2023-02-11T11:40:31.574Z,11.21
2023-02-11T11:43:10.203Z,11.16
2023-02-11T11:45:36.564Z,11.18
2023-02-11T11:48:02.941Z,11.14
2023-02-11T11:50:37.052Z,11.25
2023-02-11T11:53:13.825Z,11.34
2023-02-11T11:55:57.932Z,11.28
2023-02-11T11:58:28.946Z,11.31
2023-02-11T12:00:55.367Z,11.44
2023-02-11T12:03:40.089Z,11.35
2023-02-11T12:06:12.381Z,11.41
2023-02-11T12:08:45.878Z,11.49
2023-02-11T12:11:18.273Z,11.53
2023-02-11T12:14:03.548Z,11.54
2023-02-11T12:16:42.002Z,11.60
2023-02-11T12:19:38.016Z,11.61
2023-02-11T12:22:10.234Z,11.70
2023-02-11T12:24:53.210Z,11.73
2023-02-11T12:27:19.612Z,11.81
2023-02-11T12:30:00.189Z,11.88
2023-02-11T12:32:33.354Z,11.84
2023-02-11T12:35:12.648Z,11.79
2023-02-11T12:37:51.061Z,11.79
2023-02-11T12:40:23.004Z,11.95
2023-02-11T12:43:17.813Z,12.08
2023-02-11T12:45:47.091Z,11.94
2023-02-11T12:48:33.602Z,11.96
2023-02-11T12:51:01.781Z,11.98
2023-02-11T12:53:43.333Z,12.15
2023-02-11T12:56:29.259Z,12.34
2023-02-11T12:58:57.339Z,12.42
2023-02-11T13:01:27.564Z,12.49
2023-02-11T13:04:05.581Z,12.33
2023-02-11T13:06:50.139Z,12.35
2023-02-11T13:09:26.551Z,12.26
2023-02-11T13:11:55.764Z,12.34
2023-02-11T13:14:25.461Z,12.42
2023-02-11T13:16:53.271Z,12.55
2023-02-11T13:19:25.340Z,12.47
2023-02-11T13:22:02.844Z,12.55
2023-02-11T13:24:35.737Z,12.58
2023-02-11T13:27:10.593Z,12.51
2023-02-11T13:30:04.396Z,12.62
2023-02-11T13:32:49.514Z,12.59
2023-02-11T13:35:35.191Z,12.67
2023-02-11T13:38:06.564Z,12.50
2023-02-11T13:40:39.664Z,12.66
2023-02-11T13:43:19.049Z,12.74
2023-02-11T13:45:46.932Z,12.76
2023-02-11T13:48:24.494Z,12.78
2023-02-11T13:50:53.263Z,12.67
2023-02-11T13:53:20.281Z,12.65
2023-02-11T13:55:48.800Z,12.64
2023-02-11T13:58:15.201Z,12.78
2023-02-11T14:00:47.209Z,12.71
2023-02-11T14:03:31.961Z,12.74
2023-02-11T14:06:29.455Z,12.70
2023-02-11T14:09:14.137Z,12.63
2023-02-11T14:11:42.881Z,12.51
2023-02-11T14:14:28.268Z,12.53
2023-02-11T14:17:07.080Z,12.54
2023-02-11T14:19:34.572Z,12.53
2023-02-11T14:22:04.735Z,12.46
2023-02-11T14:24:34.795Z,12.40
2023-02-11T14:27:07.300Z,12.39
2023-02-11T14:29:33.625Z,12.47
2023-02-11T14:32:00.070Z,12.52
2023-02-11T14:34:45.319Z,12.43
2023-02-11T14:37:20.589Z,12.47
2023-02-11T14:40:00.579Z,12.38
2023-02-11T14:42:28.101Z,12.44
2023-02-11T14:44:57.465Z,12.42
2023-02-11T14:47:28.648Z,12.48
2023-02-11T14:49:55.634Z,12.42
2023-02-11T14:52:22.251Z,12.32
2023-02-11T14:54:49.122Z,12.26
2023-02-11T14:57:17.231Z,12.32
2023-02-11T15:00:15.547Z,12.32
2023-02-11T15:02:43.257Z,12.30
2023-02-11T15:05:13.606Z,12.23
2023-02-11T15:07:43.648Z,12.25
2023-02-11T15:10:15.880Z,12.22
2023-02-11T15:12:47.663Z,12.14
2023-02-11T15:15:14.636Z,12.17
2023-02-11T15:17:41.803Z,12.17
2023-02-11T15:20:15.853Z,12.25
2023-02-11T15:22:43.922Z,12.29
2023-02-11T15:25:16.645Z,12.24
2023-02-11T15:27:50.532Z,12.29
2023-02-11T15:30:22.889Z,12.25
2023-02-11T15:32:50.758Z,12.17
2023-02-11T15:35:17.898Z,12.13
2023-02-11T15:37:44.914Z,12.05
2023-02-11T15:40:19.339Z,11.97
2023-02-11T15:42:57.403Z,12.02
2023-02-11T15:45:36.393Z,11.91
2023-02-11T15:48:21.807Z,11.79
2023-02-11T15:50:53.762Z,11.78
2023-02-11T15:53:40.561Z,11.74
2023-02-11T15:56:12.679Z,11.68
2023-02-11T15:58:40.233Z,11.62
2023-02-11T16:01:07.524Z,11.60
2023-02-11T16:03:34.546Z,11.48
2023-02-11T16:06:19.707Z,11.54
2023-02-11T16:08:59.986Z,11.48
2023-02-11T16:11:34.093Z,11.52
2023-02-11T16:14:00.969Z,11.49
2023-02-11T16:16:29.074Z,11.39
2023-02-11T16:19:05.230Z,11.42
2023-02-11T16:21:39.866Z,11.39
2023-02-11T16:24:18.201Z,11.35
2023-02-11T16:26:47.745Z,11.32
2023-02-11T16:29:15.626Z,11.33
2023-02-11T16:31:46.710Z,11.32
2023-02-11T16:34:14.293Z,11.25
2023-02-11T16:36:40.910Z,11.23
2023-02-11T16:39:07.376Z,11.18
2023-02-11T16:41:33.758Z,11.19
2023-02-11T16:44:00.114Z,11.21
2023-02-11T16:46:27.452Z,11.13
2023-02-11T16:48:54.918Z,11.16
2023-02-11T16:51:21.458Z,11.10
2023-02-11T16:53:47.818Z,11.11
2023-02-11T16:56:15.785Z,11.06
2023-02-11T16:58:42.410Z,11.01
2023-02-11T17:01:09.166Z,10.97
2023-02-11T17:03:39.978Z,10.97
2023-02-11T17:06:10.236Z,10.90
2023-02-11T17:08:36.698Z,10.81
2023-02-11T17:11:04.397Z,10.88
2023-02-11T17:13:30.976Z,10.86
2023-02-11T17:15:57.497Z,10.84
2023-02-11T17:18:23.961Z,10.84
2023-02-11T17:20:50.649Z,10.80
2023-02-11T17:23:17.011Z,10.74
2023-02-11T17:25:43.338Z,10.74
2023-02-11T17:28:10.051Z,10.68
2023-02-11T17:30:36.503Z,10.64
2023-02-11T17:33:02.894Z,10.70
2023-02-11T17:35:29.372Z,10.67
2023-02-11T17:37:55.797Z,10.63
2023-02-11T17:40:22.131Z,10.62
2023-02-11T17:42:48.509Z,10.59
2023-02-11T17:45:15.170Z,10.53
2023-02-11T17:47:41.667Z,10.52
2023-02-11T17:50:08.370Z,10.51
2023-02-11T17:52:34.756Z,10.50
2023-02-11T17:55:01.114Z,10.47
2023-02-11T17:57:27.562Z,10.44
2023-02-11T17:59:54.048Z,10.44
2023-02-11T18:02:20.723Z,10.46
2023-02-11T18:04:47.105Z,10.41
2023-02-11T18:07:13.566Z,10.40
2023-02-11T18:09:40.205Z,10.36
2023-02-11T18:12:06.845Z,10.38
2023-02-11T18:14:34.025Z,10.39
2023-02-11T18:17:00.395Z,10.38
2023-02-11T18:19:30.450Z,10.36
2023-02-11T18:21:59.148Z,10.34
2023-02-11T18:24:27.129Z,10.32
2023-02-11T18:26:53.506Z,10.34
2023-02-11T18:29:19.962Z,10.29
2023-02-11T18:31:46.452Z,10.23
2023-02-11T18:34:13.323Z,10.22
2023-02-11T18:36:39.701Z,10.22
2023-02-11T18:39:06.290Z,10.19
2023-02-11T18:41:32.780Z,10.13
2023-02-11T18:44:02.680Z,10.16
2023-02-11T18:46:29.714Z,10.10
2023-02-11T18:48:56.451Z,10.15
2023-02-11T18:51:23.202Z,10.15
2023-02-11T18:53:49.741Z,10.12
2023-02-11T18:56:20.497Z,10.11
2023-02-11T18:58:46.918Z,10.10
2023-02-11T19:01:13.432Z,10.12
2023-02-11T19:03:40.221Z,10.10
2023-02-11T19:06:06.897Z,9.95
2023-02-11T19:08:33.287Z,9.99
2023-02-11T19:10:59.654Z,10.02
2023-02-11T19:13:27.942Z,10.02
2023-02-11T19:15:54.534Z,9.99
2023-02-11T19:18:21.063Z,9.98
2023-02-11T19:20:47.517Z,9.93
2023-02-11T19:23:13.878Z,9.90
2023-02-11T19:25:47.178Z,9.91
2023-02-11T19:28:13.522Z,9.92
2023-02-11T19:30:40.642Z,9.94
2023-02-11T19:33:09.935Z,9.92
2023-02-11T19:35:36.578Z,9.95
2023-02-11T19:38:03.574Z,9.94
2023-02-11T19:40:30.134Z,9.96
2023-02-11T19:42:56.537Z,9.95
2023-02-11T19:45:22.939Z,9.90
2023-02-11T19:47:49.358Z,9.88
2023-02-11T19:50:15.673Z,9.88
2023-02-11T19:52:42.116Z,9.85
2023-02-11T19:55:08.562Z,9.87
2023-02-11T19:57:36.362Z,9.89
2023-02-11T20:00:02.948Z,9.91
2023-02-11T20:02:29.949Z,9.93
2023-02-11T20:04:56.483Z,9.89
2023-02-11T20:07:22.849Z,9.87
2023-02-11T20:09:49.206Z,9.88
2023-02-11T20:12:15.654Z,9.90
2023-02-11T20:14:42.070Z,9.86
2023-02-11T20:17:08.413Z,9.83
2023-02-11T20:19:34.806Z,9.85
2023-02-11T20:22:01.132Z,9.85
2023-02-11T20:24:27.826Z,9.82
2023-02-11T20:26:57.024Z,9.84
2023-02-11T20:29:23.793Z,9.80
2023-02-11T20:31:50.449Z,9.79
2023-02-11T20:34:17.690Z,9.77
2023-02-11T20:36:51.390Z,9.77
2023-02-11T20:39:18.541Z,9.79
2023-02-11T20:41:45.955Z,9.80
2023-02-11T20:44:12.382Z,9.79
2023-02-11T20:46:40.289Z,9.78
2023-02-11T20:49:08.490Z,9.74
2023-02-11T20:51:34.986Z,9.72
2023-02-11T20:54:01.353Z,9.70
2023-02-11T20:56:29.199Z,9.69
2023-02-11T20:58:56.856Z,9.67
2023-02-11T21:01:25.224Z,9.62
2023-02-11T21:03:51.622Z,9.58
2023-02-11T21:06:18.603Z,9.50
2023-02-11T21:08:44.966Z,9.47
2023-02-11T21:11:11.860Z,9.43
2023-02-11T21:13:39.031Z,9.41
2023-02-11T21:16:06.260Z,9.39
2023-02-11T21:18:32.670Z,9.37
2023-02-11T21:20:59.462Z,9.34
2023-02-11T21:23:26.297Z,9.34
2023-02-11T21:25:53.533Z,9.26
2023-02-11T21:28:25.942Z,9.19
2023-02-11T21:30:56.819Z,9.10
2023-02-11T21:33:23.680Z,9.10
2023-02-11T21:35:50.159Z,9.09
2023-02-11T21:38:16.589Z,9.05
2023-02-11T21:40:42.923Z,9.00
2023-02-11T21:43:09.279Z,8.96
2023-02-11T21:45:41.364Z,8.93
2023-02-11T21:48:07.722Z,8.94
2023-02-11T21:50:34.231Z,8.94
2023-02-11T21:53:00.694Z,8.94
2023-02-11T21:55:27.070Z,8.92
2023-02-11T21:57:53.842Z,8.89
2023-02-11T22:00:20.336Z,8.85
2023-02-11T22:02:48.912Z,8.82
2023-02-11T22:05:16.229Z,8.79
2023-02-11T22:07:42.551Z,8.75
2023-02-11T22:10:12.213Z,8.71
2023-02-11T22:12:38.653Z,8.67
2023-02-11T22:15:05.409Z,8.65
2023-02-11T22:17:32.647Z,8.65
2023-02-11T22:19:59.097Z,8.64
2023-02-11T22:22:25.545Z,8.62
2023-02-11T22:24:52.021Z,8.58
2023-02-11T22:27:20.191Z,8.57
2023-02-11T22:29:47.114Z,8.56
2023-02-11T22:32:13.836Z,8.55
2023-02-11T22:34:40.355Z,8.53
2023-02-11T22:37:07.513Z,8.55
2023-02-11T22:39:34.153Z,8.55
2023-02-11T22:42:00.545Z,8.52
2023-02-11T22:44:26.982Z,8.50
2023-02-11T22:46:53.759Z,8.49
2023-02-11T22:49:21.551Z,8.47
2023-02-11T22:51:48.427Z,8.44
2023-02-11T22:54:16.146Z,8.43
2023-02-11T22:56:42.747Z,8.37
2023-02-11T22:59:11.193Z,8.37
2023-02-11T23:01:41.172Z,8.36
2023-02-11T23:04:09.071Z,8.36
2023-02-11T23:06:35.518Z,8.35
2023-02-11T23:09:03.375Z,8.34
2023-02-11T23:11:30.623Z,8.36
2023-02-11T23:13:57.495Z,8.34
2023-02-11T23:16:25.307Z,8.36
2023-02-11T23:18:52.150Z,8.36
2023-02-11T23:21:23.140Z,8.34
2023-02-11T23:23:53.246Z,8.33
2023-02-11T23:26:19.730Z,8.32
2023-02-11T23:28:46.270Z,8.29
2023-02-11T23:31:17.795Z,8.29
2023-02-11T23:33:44.845Z,8.28
2023-02-11T23:36:11.445Z,8.28
2023-02-11T23:38:38.197Z,8.18
2023-02-11T23:41:04.813Z,8.16
2023-02-11T23:43:31.230Z,8.14
2023-02-11T23:45:57.998Z,8.17
2023-02-11T23:48:24.847Z,8.17
2023-02-11T23:50:51.420Z,8.18
2023-02-11T23:53:17.805Z,8.20
2023-02-11T23:55:45.154Z,8.18
2023-02-11T23:58:13.063Z,8.17
